Time;durP1;ratioP1;P1;durP2;ratioP2;P2;SDS_P1;SDS_P2;PMS_P1;PMS_P2;Temp;Humidity;BMP_temperature;BMP_pressure;BME280_temperature;BME280_humidity;BME280_pressure;Samples;Min_cycle;Max_cycle;Signal;HPM_P1;HPM_P2
2023/01/03 00:00:43;;;;;;;;;25.25;20.25;;;;;10.73;69.77;102194.16;5038522;28;45110;-62
2023/01/03 00:03:13;;;;;;;;;20.50;19.25;;;;;10.73;69.18;102194.16;5048300;28;45187;-61
2023/01/03 00:05:41;;;;;;;;;24.25;22.75;;;;;10.73;69.22;102192.41;5043215;28;45400;-61
2023/01/03 00:08:07;;;;;;;;;25.00;18.75;;;;;10.60;69.30;102182.84;5050785;28;45323;-61
2023/01/03 00:10:32;;;;;;;;;20.25;18.75;;;;;10.69;69.36;102199.38;5050513;28;45133;-62
2023/01/03 00:12:57;;;;;;;;;24.00;20.25;;;;;10.62;69.11;102186.50;5041043;28;45797;-61
2023/01/03 00:15:23;;;;;;;;;22.75;19.25;;;;;10.58;68.99;102178.31;5041346;28;53829;-62
2023/01/03 00:17:50;;;;;;;;;19.25;16.25;;;;;10.56;69.37;102182.63;5047369;28;45088;-62
2023/01/03 00:20:16;;;;;;;;;21.00;18.75;;;;;10.67;69.25;102200.13;5031529;28;44900;-62
2023/01/03 00:22:41;;;;;;;;;21.50;18.25;;;;;10.60;69.60;102187.31;5035855;28;45501;-62
2023/01/03 00:25:07;;;;;;;;;20.75;18.00;;;;;10.50;69.27;102177.91;5049674;28;45086;-62
2023/01/03 00:27:32;;;;;;;;;22.25;17.75;;;;;10.62;69.33;102191.88;5042652;28;45224;-62
2023/01/03 00:29:58;;;;;;;;;21.00;18.25;;;;;10.65;69.39;102194.69;5031005;28;45340;-62
2023/01/03 00:32:23;;;;;;;;;20.25;18.00;;;;;10.55;69.05;102183.50;5043823;28;45489;-62
2023/01/03 00:34:48;;;;;;;;;17.25;17.25;;;;;10.59;68.96;102182.78;5043791;28;45143;-62
2023/01/03 00:37:14;;;;;;;;;19.00;17.50;;;;;10.64;69.43;102184.84;5051705;28;44967;-61
2023/01/03 00:39:40;;;;;;;;;16.25;16.25;;;;;10.73;69.33;102192.41;5050967;28;44892;-61
2023/01/03 00:42:05;;;;;;;;;20.50;17.00;;;;;10.70;69.13;102181.56;5048858;28;45513;-61
2023/01/03 00:44:30;;;;;;;;;18.25;16.75;;;;;10.75;68.41;102184.47;5032862;28;45000;-62
2023/01/03 00:46:56;;;;;;;;;16.75;16.00;;;;;10.80;69.14;102194.53;5034917;28;45944;-60
2023/01/03 00:49:23;;;;;;;;;17.25;17.25;;;;;10.83;68.22;102194.69;5041373;28;45177;-61
2023/01/03 00:51:48;;;;;;;;;21.00;18.75;;;;;10.74;68.84;102166.56;5048827;28;46558;-61
2023/01/03 00:54:14;;;;;;;;;21.00;18.00;;;;;10.91;68.02;102187.03;5045873;28;45196;-61
2023/01/03 00:56:42;;;;;;;;;22.50;18.00;;;;;10.90;68.17;102181.63;5047555;28;44969;-65
2023/01/03 00:59:08;;;;;;;;;16.25;15.25;;;;;10.88;68.41;102176.19;5042362;28;45013;-62
2023/01/03 01:01:45;;;;;;;;;19.75;17.75;;;;;10.91;67.92;102181.69;5049292;28;47185;-61
2023/01/03 01:04:22;;;;;;;;;20.00;15.75;;;;;11.00;67.82;102191.91;5047183;28;45183;-62
2023/01/03 01:06:50;;;;;;;;;18.50;17.50;;;;;10.96;68.32;102173.91;5038444;28;45050;-60
2023/01/03 01:09:18;;;;;;;;;18.75;15.25;;;;;11.00;67.78;102190.13;5031245;28;45203;-63
2023/01/03 01:11:44;;;;;;;;;14.25;11.50;;;;;11.00;67.94;102182.09;5034323;28;45680;-61
2023/01/03 01:14:20;;;;;;;;;15.75;12.75;;;;;11.02;67.52;102188.47;5044873;28;45100;-61
2023/01/03 01:16:53;;;;;;;;;16.00;15.00;;;;;11.04;67.24;102193.91;5043420;28;44974;-63
2023/01/03 01:19:21;;;;;;;;;16.50;12.00;;;;;11.04;67.80;102191.22;5033052;28;45200;-62
2023/01/03 01:21:47;;;;;;;;;20.25;17.75;;;;;11.10;66.50;102195.94;5043648;28;45057;-62
2023/01/03 01:24:13;;;;;;;;;16.00;15.00;;;;;10.93;66.84;102160.38;5047961;28;45110;-61
2023/01/03 01:26:39;;;;;;;;;17.75;17.00;;;;;11.11;67.23;102193.34;5044353;28;45282;-62
2023/01/03 01:29:04;;;;;;;;;15.75;12.25;;;;;11.04;67.56;102180.53;5036300;28;45034;-62
2023/01/03 01:31:30;;;;;;;;;16.25;14.25;;;;;10.82;66.68;102149.16;5053046;28;47385;-59
2023/01/03 01:33:55;;;;;;;;;17.00;14.00;;;;;10.85;66.88;102168.00;5052736;28;45141;-60
2023/01/03 01:36:41;;;;;;;;;16.50;12.25;;;;;10.95;66.96;102193.44;5051780;28;45265;-61
2023/01/03 01:39:15;;;;;;;;;20.00;12.25;;;;;10.78;67.66;102195.31;5031745;28;45237;-61
2023/01/03 01:44:53;;;;;;;;;10.00;8.50;;;;;10.75;67.21;102204.09;5048541;28;45291;-61
2023/01/03 01:47:46;;;;;;;;;16.75;14.75;;;;;10.67;68.07;102197.44;5051572;28;45097;-61
2023/01/03 01:50:26;;;;;;;;;13.25;11.00;;;;;10.68;68.13;102207.31;5051316;28;45064;-63
2023/01/03 01:53:03;;;;;;;;;14.25;9.25;;;;;10.65;67.94;102209.81;5044340;28;45795;-62
2023/01/03 01:55:52;;;;;;;;;18.75;12.75;;;;;10.38;68.46;102164.88;5046078;28;45307;-62
2023/01/03 01:58:21;;;;;;;;;17.00;14.00;;;;;10.63;68.50;102216.84;5052156;28;45257;-62
2023/01/03 02:00:46;;;;;;;;;14.00;9.50;;;;;10.59;68.33;102201.50;5050583;28;45410;-63
2023/01/03 02:03:12;;;;;;;;;13.75;11.50;;;;;10.61;68.00;102219.44;5047945;28;45104;-61
2023/01/03 02:05:42;;;;;;;;;13.00;12.75;;;;;10.59;68.49;102214.84;5051354;28;45035;-62
2023/01/03 02:08:08;;;;;;;;;9.00;9.00;;;;;10.61;68.03;102215.84;5055020;28;45141;-61
2023/01/03 02:11:10;;;;;;;;;11.00;9.25;;;;;10.64;68.96;102218.66;5050888;28;45188;-61
2023/01/03 02:14:02;;;;;;;;;14.00;11.75;;;;;10.69;68.12;102217.13;5046261;28;46925;-61
2023/01/03 02:16:40;;;;;;;;;13.50;11.75;;;;;10.75;68.17;102216.53;5046995;28;44949;-61
2023/01/03 02:19:27;;;;;;;;;14.25;10.75;;;;;10.74;67.92;102222.72;5051695;28;45078;-61
2023/01/03 02:21:52;;;;;;;;;13.00;9.00;;;;;10.70;67.99;102218.97;5052799;28;45272;-61
2023/01/03 02:24:23;;;;;;;;;12.75;8.25;;;;;10.70;68.20;102227.91;5051963;28;45240;-61
2023/01/03 02:27:13;;;;;;;;;12.75;10.50;;;;;10.68;68.45;102224.25;5046990;28;44908;-61
2023/01/03 02:30:05;;;;;;;;;13.25;11.00;;;;;10.56;68.30;102214.69;5047974;28;45274;-61
2023/01/03 02:32:45;;;;;;;;;12.75;9.00;;;;;10.62;68.41;102223.03;5048080;28;45397;-62
2023/01/03 02:35:30;;;;;;;;;15.00;10.50;;;;;10.55;68.21;102223.56;5042450;28;45546;-60
2023/01/03 02:38:12;;;;;;;;;13.25;10.00;;;;;10.52;69.33;102221.66;5044348;28;45053;-61
2023/01/03 02:40:48;;;;;;;;;13.75;9.75;;;;;10.55;68.48;102227.16;5047441;28;45167;-60
2023/01/03 02:43:22;;;;;;;;;6.50;5.00;;;;;10.50;68.96;102226.91;5039114;28;45134;-63
2023/01/03 02:46:12;;;;;;;;;9.00;8.00;;;;;10.53;68.87;102233.28;5052340;28;45780;-59
2023/01/03 02:48:53;;;;;;;;;12.00;12.00;;;;;10.55;68.70;102226.25;5048520;28;45061;-61
2023/01/03 02:51:35;;;;;;;;;14.50;10.00;;;;;10.52;69.01;102227.00;5034037;28;45244;-61
2023/01/03 02:54:05;;;;;;;;;12.50;12.25;;;;;10.49;68.75;102219.75;5044856;28;45103;-62
2023/01/03 02:56:56;;;;;;;;;7.25;7.25;;;;;10.39;68.90;102188.03;5045781;28;45603;-62
2023/01/03 02:59:31;;;;;;;;;10.00;8.50;;;;;10.52;69.09;102227.00;5040467;28;45172;-62
2023/01/03 03:01:58;;;;;;;;;9.25;7.25;;;;;10.50;68.72;102220.66;5051981;28;45052;-61
2023/01/03 03:04:24;;;;;;;;;8.00;7.50;;;;;10.50;69.00;102231.34;5049507;28;45017;-61
2023/01/03 03:07:03;;;;;;;;;11.00;9.00;;;;;10.48;69.25;102233.94;5050802;28;45616;-65
2023/01/03 03:09:29;;;;;;;;;13.25;10.25;;;;;10.37;69.03;102196.84;5032728;28;45437;-64
2023/01/03 03:14:48;;;;;;;;;12.00;8.00;;;;;10.43;68.47;102182.03;5038837;28;44951;-61
2023/01/03 03:17:20;;;;;;;;;9.75;8.00;;;;;10.51;68.77;102193.13;5035198;28;45288;-62
2023/01/03 03:25:51;;;;;;;;;9.75;7.00;;;;;10.84;68.31;102223.25;5046813;28;45148;-61
2023/01/03 03:28:35;;;;;;;;;6.75;5.25;;;;;10.90;67.86;102229.75;5050791;28;45885;-62
2023/01/03 03:31:15;;;;;;;;;10.00;6.50;;;;;10.96;68.07;102230.06;5037715;28;45026;-60
2023/01/03 03:33:52;;;;;;;;;8.00;6.00;;;;;10.96;67.58;102211.34;5036068;28;45375;-61
2023/01/03 03:36:26;;;;;;;;;7.50;7.00;;;;;11.06;67.00;102237.66;5048962;28;45616;-61
2023/01/03 03:38:51;;;;;;;;;7.50;6.75;;;;;10.93;67.19;102214.75;5047045;28;45154;-62
2023/01/03 03:47:51;;;;;;;;;7.50;6.00;;;;;10.94;67.54;102221.94;5045671;28;45070;-62
2023/01/03 03:50:16;;;;;;;;;9.25;8.50;;;;;10.95;67.87;102218.41;5046171;28;45466;-62
2023/01/03 03:52:46;;;;;;;;;8.00;7.75;;;;;10.77;67.29;102198.81;5050570;28;45286;-61
2023/01/03 03:55:18;;;;;;;;;11.00;8.50;;;;;10.85;67.83;102211.69;5047244;28;45025;-62
2023/01/03 03:57:55;;;;;;;;;8.50;8.25;;;;;10.94;67.85;102231.72;5031143;28;45094;-62
2023/01/03 04:00:26;;;;;;;;;9.75;7.00;;;;;10.97;67.76;102229.19;5050671;28;45339;-62
2023/01/03 04:02:54;;;;;;;;;10.25;9.00;;;;;11.00;67.60;102232.00;5048546;28;45191;-61
2023/01/03 04:05:23;;;;;;;;;10.00;8.25;;;;;10.97;67.19;102227.44;5048456;28;45125;-62
2023/01/03 04:07:49;;;;;;;;;11.50;7.00;;;;;10.86;67.72;102210.88;5050113;28;45133;-62
2023/01/03 04:10:19;;;;;;;;;7.75;5.50;;;;;10.95;67.64;102226.44;5045916;28;46118;-62
2023/01/03 04:12:46;;;;;;;;;6.00;6.00;;;;;10.84;68.27;102209.88;5036771;28;45064;-62
2023/01/03 04:15:12;;;;;;;;;8.33;8.00;;;;;10.86;67.60;102234.03;5017992;28;45087;-61
2023/01/03 04:17:37;;;;;;;;;6.33;6.00;;;;;10.76;68.37;102224.63;5052376;28;45019;-61
2023/01/03 04:20:03;;;;;;;;;4.00;4.00;;;;;10.69;68.74;102215.41;5039074;28;56370;-60
2023/01/03 04:22:28;;;;;;;;;3.00;2.00;;;;;10.69;69.06;102225.16;5049762;28;45145;-59
2023/01/03 04:24:53;;;;;;;;;2.00;2.00;;;;;10.66;68.84;102244.66;5051747;28;45179;-60
2023/01/03 04:27:19;;;;;;;;;11.67;5.33;;;;;10.64;68.93;102234.72;5048278;28;45149;-62
2023/01/03 04:29:44;;;;;;;;;5.00;3.50;;;;;10.58;69.37;102238.00;5043752;28;45220;-61
2023/01/03 04:32:09;;;;;;;;;5.00;4.00;;;;;10.57;69.92;102233.47;5047612;28;44971;-61
2023/01/03 04:34:35;;;;;;;;;5.00;2.00;;;;;10.61;69.38;102248.84;5043672;28;44903;-63
2023/01/03 04:37:00;;;;;;;;;4.75;4.00;;;;;10.65;69.11;102242.81;5041703;28;45037;-62
2023/01/03 04:39:26;;;;;;;;;6.50;3.50;;;;;10.65;69.56;102236.56;5034335;28;46570;-62
2023/01/03 04:41:51;;;;;;;;;3.67;3.00;;;;;10.66;69.28;102244.66;5052685;28;44998;-61
2023/01/03 04:44:16;;;;;;;;;4.25;3.75;;;;;10.58;69.60;102240.66;5052628;28;44911;-61
2023/01/03 04:46:42;;;;;;;;;5.33;4.00;;;;;10.62;68.88;102252.44;5052369;28;44936;-61
2023/01/03 04:49:09;;;;;;;;;5.00;5.00;;;;;10.57;69.12;102253.97;5052702;28;45676;-62
2023/01/03 04:51:34;;;;;;;;;6.75;5.25;;;;;10.55;68.98;102253.88;5045531;28;45211;-63
2023/01/03 04:54:00;;;;;;;;;6.25;4.25;;;;;10.54;69.05;102260.03;5043530;28;45293;-62
2023/01/03 04:56:28;;;;;;;;;6.50;5.00;;;;;10.45;68.74;102244.47;5047066;28;45230;-62
2023/01/03 04:58:53;;;;;;;;;6.50;5.25;;;;;10.47;68.87;102242.78;5033754;28;46533;-61
2023/01/03 05:01:19;;;;;;;;;5.75;4.25;;;;;10.51;69.12;102262.59;5048932;28;45138;-61
2023/01/03 05:03:45;;;;;;;;;4.33;4.33;;;;;10.45;68.77;102254.25;5041699;28;45055;-61
2023/01/03 05:06:11;;;;;;;;;4.33;4.00;;;;;10.51;68.96;102263.50;5049800;28;45395;-60
2023/01/03 05:08:37;;;;;;;;;3.00;3.00;;;;;10.54;69.19;102272.50;5048777;28;45177;-60
2023/01/03 05:11:03;;;;;;;;;8.00;5.00;;;;;10.47;69.19;102256.16;5033646;28;45312;-61
2023/01/03 05:13:29;;;;;;;;;3.00;3.00;;;;;10.54;69.30;102267.16;5047985;28;45006;-62
2023/01/03 05:15:54;;;;;;;;;5.25;5.00;;;;;10.48;68.79;102254.41;5049608;28;45241;-62
2023/01/03 05:18:19;;;;;;;;;3.50;3.50;;;;;10.44;69.17;102252.41;5032324;28;46512;-60
2023/01/03 05:26:15;;;;;;;;;7.50;6.00;;;;;10.55;69.06;102277.03;5043944;28;45114;-60
2023/01/03 05:28:43;;;;;;;;;4.75;4.75;;;;;10.53;68.80;102281.38;5048677;28;45631;-60
2023/01/03 05:31:09;;;;;;;;;8.25;6.50;;;;;10.50;68.59;102279.44;5038826;28;46724;-61
2023/01/03 05:33:38;;;;;;;;;8.00;6.00;;;;;10.49;68.69;102289.22;5049713;28;44945;-62
2023/01/03 05:36:04;;;;;;;;;7.00;4.00;;;;;10.30;68.91;102257.03;5047341;28;45094;-61
2023/01/03 05:38:30;;;;;;;;;4.50;4.00;;;;;10.31;68.70;102253.50;5030624;28;47579;-61
2023/01/03 05:40:55;;;;;;;;;5.33;4.67;;;;;10.33;68.86;102271.47;5030000;28;45404;-62
2023/01/03 05:43:20;;;;;;;;;3.00;3.00;;;;;10.36;69.12;102275.16;5039568;28;45052;-62
2023/01/03 05:45:50;;;;;;;;;8.00;8.00;;;;;10.36;69.26;102281.44;5049413;28;45131;-62
2023/01/03 05:48:16;;;;;;;;;5.33;3.67;;;;;10.23;68.77;102262.88;5048820;28;45775;-62
2023/01/03 05:50:42;;;;;;;;;7.00;6.00;;;;;10.30;69.00;102279.31;5042116;28;45215;-64
2023/01/03 05:53:07;;;;;;;;;5.00;4.25;;;;;10.31;69.58;102289.16;5049577;28;45124;-61
2023/01/03 05:55:36;;;;;;;;;8.50;8.50;;;;;10.27;69.48;102267.53;5035377;28;45231;-62
2023/01/03 05:58:01;;;;;;;;;6.00;5.33;;;;;10.35;69.01;102284.94;5047681;28;46296;-61
2023/01/03 06:00:27;;;;;;;;;4.00;4.00;;;;;10.28;69.15;102272.97;5043121;28;45176;-61
2023/01/03 06:02:52;;;;;;;;;12.00;6.00;;;;;10.25;69.43;102272.81;5046880;28;44969;-63
2023/01/03 06:05:18;;;;;;;;;3.25;3.25;;;;;10.30;69.15;102281.06;5049405;28;45074;-63
2023/01/03 06:07:43;;;;;;;;;3.00;3.00;;;;;10.28;69.12;102283.66;5044899;28;45443;-61
2023/01/03 06:10:09;;;;;;;;;7.00;5.67;;;;;10.10;69.62;102248.88;5041915;28;44919;-64
2023/01/03 06:12:34;;;;;;;;;5.00;5.00;;;;;10.33;69.64;102291.94;5047186;28;45044;-62
2023/01/03 06:14:59;;;;;;;;;3.67;3.67;;;;;10.31;69.20;102286.50;5052572;28;45093;-62
2023/01/03 06:20:10;;;;;;;;;6.25;5.00;;;;;10.28;68.56;102288.09;5049951;28;45476;-62
2023/01/03 06:22:36;;;;;;;;;5.00;5.00;;;;;10.30;69.00;102302.44;5038244;28;44956;-61
2023/01/03 06:25:02;;;;;;;;;5.25;5.25;;;;;10.33;69.13;102307.97;5039667;28;45325;-62
2023/01/03 06:27:28;;;;;;;;;4.50;3.75;;;;;10.22;68.96;102286.00;5047070;28;45567;-62
2023/01/03 06:29:53;;;;;;;;;4.75;4.75;;;;;10.27;68.49;102289.81;5039619;28;45197;-62
2023/01/03 06:32:18;;;;;;;;;6.75;6.00;;;;;10.38;69.00;102309.13;5041718;28;45406;-61
2023/01/03 06:34:44;;;;;;;;;9.25;6.50;;;;;10.40;69.42;102317.22;5048815;28;45598;-61
2023/01/03 06:37:09;;;;;;;;;6.50;6.50;;;;;10.41;69.33;102319.03;5041366;28;45514;-63
2023/01/03 06:39:35;;;;;;;;;8.00;6.25;;;;;10.45;69.26;102324.63;5041222;28;45102;-62
2023/01/03 06:42:38;;;;;;;;;6.50;6.00;;;;;10.44;68.93;102314.81;5044915;28;45188;-60
2023/01/03 06:53:10;;;;;;;;;11.00;6.00;;;;;10.53;68.53;102321.47;5040301;28;45105;-62
2023/01/03 06:53:11;;;;;;;;;6.50;6.00;;;;;10.39;67.82;102291.34;5051628;28;45739;-61
2023/01/03 06:55:36;;;;;;;;;8.33;4.67;;;;;10.50;68.03;102309.75;5043454;28;45116;-64
2023/01/03 06:58:02;;;;;;;;;9.75;6.25;;;;;10.53;68.31;102324.13;5025319;28;46972;-61
2023/01/03 07:00:28;;;;;;;;;11.75;11.75;;;;;10.50;68.21;102323.13;5052325;28;45503;-62
2023/01/03 07:02:53;;;;;;;;;7.25;6.25;;;;;10.51;68.39;102324.97;5051553;28;45106;-61
2023/01/03 07:05:18;;;;;;;;;8.75;7.00;;;;;10.36;68.55;102301.84;5046987;28;46088;-63
2023/01/03 07:07:44;;;;;;;;;8.00;5.50;;;;;10.49;68.87;102328.38;5039738;28;45720;-61
2023/01/03 07:10:09;;;;;;;;;16.00;13.25;;;;;10.39;69.14;102297.59;5039378;28;45530;-62
2023/01/03 07:15:19;;;;;;;;;12.00;8.25;;;;;10.61;67.99;102328.09;5042243;28;45254;-62
2023/01/03 07:17:44;;;;;;;;;11.25;9.75;;;;;10.10;68.66;102223.94;5047899;28;63294;-60
2023/01/03 07:20:09;;;;;;;;;11.75;7.00;;;;;10.62;68.43;102319.25;5037680;28;45281;-63
2023/01/03 07:22:35;;;;;;;;;8.75;7.50;;;;;10.51;68.32;102300.91;5034145;28;45390;-62
2023/01/03 07:25:00;;;;;;;;;12.25;9.75;;;;;10.66;68.20;102343.53;5022810;28;45303;-61
2023/01/03 07:27:26;;;;;;;;;8.75;8.00;;;;;10.56;68.55;102317.19;5020209;28;46868;-61
2023/01/03 07:29:51;;;;;;;;;7.75;7.75;;;;;10.72;68.26;102352.72;5019528;28;45574;-61
2023/01/03 07:32:16;;;;;;;;;7.00;6.75;;;;;10.64;68.03;102334.53;5025082;28;45311;-62
2023/01/03 07:34:41;;;;;;;;;7.00;7.00;;;;;10.60;68.45;102329.84;5034995;28;45451;-60
2023/01/03 07:37:07;;;;;;;;;9.50;7.00;;;;;10.68;68.05;102348.97;5033975;28;45341;-62
2023/01/03 07:39:32;;;;;;;;;12.75;8.00;;;;;10.64;68.24;102342.56;5031528;28;45474;-62
2023/01/03 07:44:41;;;;;;;;;10.00;8.50;;;;;10.55;68.45;102333.13;5027067;28;45352;-62
2023/01/03 07:47:06;;;;;;;;;7.50;6.25;;;;;10.69;67.71;102353.47;5034473;28;45453;-63
2023/01/03 07:49:32;;;;;;;;;9.00;7.75;;;;;10.58;68.45;102341.31;5032088;28;45377;-61
2023/01/03 07:51:57;;;;;;;;;9.25;7.25;;;;;10.64;68.23;102341.63;5028656;28;45439;-63
2023/01/03 07:54:22;;;;;;;;;6.00;6.00;;;;;10.69;68.57;102364.16;5025615;28;51021;-61
2023/01/03 07:56:48;;;;;;;;;9.00;7.75;;;;;10.68;68.44;102371.25;5017003;28;48303;-66
2023/01/03 07:59:13;;;;;;;;;14.25;9.25;;;;;10.56;68.36;102348.31;5034611;28;45483;-61
2023/01/03 08:01:38;;;;;;;;;12.50;8.75;;;;;10.54;68.69;102364.28;5025436;28;45507;-61
2023/01/03 08:04:04;;;;;;;;;10.25;5.00;;;;;10.53;68.54;102365.13;5034061;28;45416;-60
2023/01/03 08:06:29;;;;;;;;;9.00;7.00;;;;;10.55;68.68;102374.13;5034658;28;46544;-62
2023/01/03 08:14:22;;;;;;;;;13.25;8.25;;;;;10.56;69.13;102385.72;5021789;28;45621;-63
2023/01/03 08:16:47;;;;;;;;;10.00;8.75;;;;;10.56;68.75;102392.03;5034451;28;45479;-62
2023/01/03 08:19:13;;;;;;;;;9.50;8.50;;;;;10.54;69.01;102398.09;5030138;28;45588;-62
2023/01/03 08:21:38;;;;;;;;;9.00;7.00;;;;;10.50;68.85;102395.25;5025820;28;45401;-62
2023/01/03 08:24:04;;;;;;;;;7.25;6.75;;;;;10.50;68.94;102397.03;5034696;28;45685;-61
2023/01/03 08:26:29;;;;;;;;;8.00;8.00;;;;;10.47;69.20;102400.44;5034757;28;45404;-61
2023/01/03 08:28:54;;;;;;;;;5.50;5.25;;;;;10.46;68.69;102400.34;5032591;28;45364;-61
2023/01/03 08:31:22;;;;;;;;;11.00;8.00;;;;;10.38;68.71;102396.34;5027516;28;45320;-62
2023/01/03 08:34:00;;;;;;;;;8.00;7.75;;;;;10.19;69.10;102363.28;5033322;28;45379;-61
2023/01/03 08:36:31;;;;;;;;;9.00;7.00;;;;;9.93;69.18;102308.47;5008924;28;45591;-63
2023/01/03 08:39:07;;;;;;;;;12.25;9.00;;;;;10.34;69.67;102373.91;5031373;28;45619;-64
2023/01/03 08:41:37;;;;;;;;;11.50;9.00;;;;;10.45;69.56;102394.09;5020759;28;45387;-62
2023/01/03 08:44:05;;;;;;;;;9.00;7.50;;;;;10.42;69.22;102379.66;5023306;28;45615;-62
2023/01/03 08:46:32;;;;;;;;;9.00;8.50;;;;;10.41;69.18;102381.44;5031547;28;46143;-62
2023/01/03 08:48:58;;;;;;;;;8.00;8.00;;;;;10.58;68.70;102401.03;5031485;28;45343;-64
2023/01/03 08:51:25;;;;;;;;;13.25;10.50;;;;;10.56;69.13;102401.78;5033885;28;45486;-61
2023/01/03 08:53:51;;;;;;;;;10.50;8.75;;;;;10.64;68.94;102400.41;5034275;28;45214;-60
2023/01/03 08:56:18;;;;;;;;;17.25;11.50;;;;;10.71;68.70;102407.94;5030891;28;45397;-61
2023/01/03 08:58:44;;;;;;;;;5.75;5.75;;;;;10.75;69.23;102409.03;5024897;28;45353;-62
2023/01/03 09:01:10;;;;;;;;;7.00;7.00;;;;;10.80;68.66;102407.50;5014674;28;45699;-63
2023/01/03 09:03:35;;;;;;;;;11.50;7.75;;;;;10.72;68.11;102404.41;5031000;28;45641;-62
2023/01/03 09:06:02;;;;;;;;;11.00;8.25;;;;;10.68;68.14;102398.00;5015094;28;45944;-61
2023/01/03 09:08:32;;;;;;;;;9.00;7.00;;;;;10.73;68.33;102405.34;5023326;28;45536;-65
2023/01/03 09:11:02;;;;;;;;;8.25;7.00;;;;;10.81;68.40;102414.69;5023392;28;45486;-62
2023/01/03 09:13:28;;;;;;;;;14.50;11.25;;;;;10.81;68.27;102406.69;5039473;28;45438;-61
2023/01/03 09:16:02;;;;;;;;;16.25;12.50;;;;;10.88;67.95;102395.44;5039755;28;46201;-61
2023/01/03 09:18:28;;;;;;;;;12.00;8.25;;;;;10.98;67.39;102412.88;5008429;28;45412;-61
2023/01/03 09:20:53;;;;;;;;;12.75;11.00;;;;;11.00;67.84;102413.88;5020871;28;45507;-62
2023/01/03 09:23:19;;;;;;;;;10.00;8.75;;;;;10.98;67.35;102407.53;5018719;28;45515;-62
2023/01/03 09:25:45;;;;;;;;;13.25;11.25;;;;;10.98;67.21;102416.47;5032924;28;46948;-60
2023/01/03 09:28:11;;;;;;;;;10.25;9.00;;;;;10.96;66.34;102422.59;5028455;28;45473;-61
2023/01/03 09:30:36;;;;;;;;;10.25;8.00;;;;;10.98;66.86;102429.84;5015345;28;45545;-62
2023/01/03 09:33:03;;;;;;;;;17.25;13.00;;;;;10.95;67.16;102413.63;5033452;28;45436;-63
2023/01/03 09:35:29;;;;;;;;;13.50;10.75;;;;;10.86;67.19;102403.38;5033646;28;45680;-62
2023/01/03 09:37:54;;;;;;;;;13.75;11.00;;;;;10.95;66.95;102415.41;5029052;28;45988;-61
2023/01/03 09:40:19;;;;;;;;;11.25;8.00;;;;;10.97;66.86;102414.66;5022016;28;45480;-60
2023/01/03 09:45:32;;;;;;;;;9.50;7.50;;;;;10.94;67.46;102413.56;5024552;28;45964;-62
2023/01/03 09:48:00;;;;;;;;;15.75;11.25;;;;;10.93;66.91;102409.06;5033245;28;45404;-61
2023/01/03 09:50:31;;;;;;;;;14.25;10.00;;;;;10.95;66.95;102420.75;5034322;28;45439;-62
2023/01/03 10:04:17;;;;;;;;;8.25;8.25;;;;;10.91;66.95;102430.38;5033653;28;45577;-61
2023/01/03 10:07:20;;;;;;;;;8.75;6.00;;;;;10.86;67.35;102438.16;5030256;28;45598;-62
2023/01/03 10:09:56;;;;;;;;;10.50;8.75;;;;;10.91;67.50;102440.16;5029175;28;45395;-60
2023/01/03 10:12:25;;;;;;;;;14.25;7.25;;;;;10.94;66.86;102438.56;5035601;28;45577;-62
2023/01/03 10:14:53;;;;;;;;;9.75;7.25;;;;;10.93;66.76;102436.72;5036449;28;45430;-62
2023/01/03 10:17:53;;;;;;;;;11.75;7.00;;;;;10.86;66.82;102430.13;5034931;28;45732;-62
2023/01/03 10:20:35;;;;;;;;;10.75;9.50;;;;;10.99;67.28;102447.72;5018830;28;45615;-61
2023/01/03 10:23:05;;;;;;;;;11.00;8.25;;;;;10.93;66.56;102414.41;5036131;28;45507;-61
2023/01/03 10:25:31;;;;;;;;;13.75;10.75;;;;;11.07;66.23;102432.09;5036200;28;45422;-61
2023/01/03 10:28:14;;;;;;;;;9.75;9.75;;;;;11.12;66.48;102430.56;5035775;28;46289;-61
2023/01/03 10:31:05;;;;;;;;;19.50;18.25;;;;;11.19;66.60;102448.75;5033202;28;45841;-61
2023/01/03 10:33:48;;;;;;;;;10.25;9.50;;;;;11.12;67.15;102438.59;5021203;28;45376;-61
2023/01/03 10:36:16;;;;;;;;;21.00;11.75;;;;;11.17;66.57;102445.09;5030502;28;45403;-60
2023/01/03 10:38:43;;;;;;;;;13.75;9.75;;;;;11.10;66.38;102428.63;5031137;28;45637;-62
2023/01/03 10:41:35;;;;;;;;;16.00;13.25;;;;;11.30;66.37;102443.97;5026275;28;45314;-61
2023/01/03 10:44:02;;;;;;;;;14.50;12.25;;;;;11.40;65.81;102445.31;5029273;28;45379;-61
2023/01/03 10:46:28;;;;;;;;;13.75;11.25;;;;;11.43;65.61;102441.06;5031377;28;45372;-62
2023/01/03 10:49:10;;;;;;;;;16.50;10.50;;;;;11.32;65.85;102418.19;5031765;28;46340;-61
2023/01/03 10:51:41;;;;;;;;;10.00;8.75;;;;;11.46;65.64;102434.94;5032019;28;45474;-62
2023/01/03 10:54:16;;;;;;;;;8.75;7.75;;;;;11.42;64.90;102427.59;5011913;28;45435;-62
2023/01/03 10:56:42;;;;;;;;;9.00;7.75;;;;;11.40;65.34;102426.59;5029429;28;45754;-60
2023/01/03 10:59:14;;;;;;;;;9.50;7.75;;;;;11.36;66.05;102440.66;5034202;28;45701;-60
2023/01/03 11:01:55;;;;;;;;;14.00;7.50;;;;;11.34;65.48;102432.56;5027688;28;45357;-62
2023/01/03 11:04:21;;;;;;;;;10.50;10.00;;;;;11.25;65.39;102430.34;5031462;28;45398;-61
2023/01/03 11:07:07;;;;;;;;;18.75;15.25;;;;;11.37;65.44;102434.50;5035416;28;45377;-63
2023/01/03 11:09:41;;;;;;;;;16.50;11.00;;;;;11.33;66.04;102419.09;4996783;28;47330;-60
2023/01/03 11:12:20;;;;;;;;;16.00;10.50;;;;;11.27;65.34;102395.66;5029097;28;45375;-62
2023/01/03 11:14:51;;;;;;;;;12.00;8.50;;;;;11.49;64.78;102420.78;5036090;28;45231;-62
2023/01/03 11:17:19;;;;;;;;;10.50;9.00;;;;;11.50;64.95;102428.91;5026000;28;45591;-62
2023/01/03 11:19:45;;;;;;;;;17.00;13.00;;;;;11.45;65.37;102411.69;5021137;28;45450;-62
2023/01/03 11:22:32;;;;;;;;;13.25;10.00;;;;;11.53;65.59;102420.09;5028773;28;45225;-63
2023/01/03 11:25:19;;;;;;;;;14.50;14.50;;;;;11.55;64.54;102418.41;5028431;28;45500;-61
2023/01/03 11:28:10;;;;;;;;;16.50;11.00;;;;;11.50;65.31;102415.53;5026249;28;45472;-62
2023/01/03 11:31:20;;;;;;;;;10.50;7.75;;;;;11.50;65.15;102411.91;5035603;28;45573;-61
2023/01/03 11:34:20;;;;;;;;;7.00;6.00;;;;;11.46;65.63;102408.16;4967979;28;45577;-62
2023/01/03 11:36:55;;;;;;;;;5.33;5.33;;;;;11.48;65.67;102414.50;4971133;28;45428;-63
2023/01/03 11:39:57;;;;;;;;;6.33;6.33;;;;;11.37;65.05;102395.25;5011176;28;45528;-61
2023/01/03 11:42:37;;;;;;;;;7.00;7.00;;;;;11.43;65.65;102405.34;5007371;28;45860;-62
2023/01/03 11:45:27;;;;;;;;;10.50;9.00;;;;;11.42;65.63;102407.09;5032510;28;45448;-62
2023/01/03 11:48:08;;;;;;;;;6.67;5.00;;;;;11.34;65.31;102407.56;5024481;28;45718;-62
2023/01/03 11:50:59;;;;;;;;;12.25;10.00;;;;;11.32;66.08;102414.56;5019605;28;45592;-63
2023/01/03 11:53:33;;;;;;;;;17.25;12.50;;;;;11.29;65.69;102403.75;5018101;28;47820;-61
2023/01/03 11:56:23;;;;;;;;;14.50;11.50;;;;;11.43;65.91;102413.34;5028687;28;45563;-63
2023/01/03 11:59:12;;;;;;;;;16.25;11.25;;;;;11.50;65.47;102411.91;5026415;28;45456;-63
2023/01/03 12:02:11;;;;;;;;;10.00;8.00;;;;;11.52;64.88;102404.88;5016876;28;45573;-63
2023/01/03 12:05:05;;;;;;;;;10.00;6.75;;;;;11.50;64.87;102380.72;5028835;28;45522;-64
2023/01/03 12:07:53;;;;;;;;;9.50;9.50;;;;;11.71;64.36;102395.97;5027390;28;45589;-63
2023/01/03 12:10:31;;;;;;;;;11.50;8.25;;;;;11.56;64.31;102364.94;5026241;28;45549;-64
2023/01/03 12:13:17;;;;;;;;;13.50;13.00;;;;;11.66;64.54;102385.03;5021977;28;45301;-63
2023/01/03 12:15:56;;;;;;;;;8.00;8.00;;;;;11.75;64.53;102385.50;5033683;28;46566;-63
2023/01/03 12:18:41;;;;;;;;;11.50;8.00;;;;;11.79;63.98;102378.53;5016115;28;45572;-61
2023/01/03 12:21:25;;;;;;;;;15.25;12.50;;;;;11.74;63.31;102378.28;5009533;28;45534;-64
2023/01/03 12:24:19;;;;;;;;;10.75;10.75;;;;;11.73;64.49;102375.53;5030348;28;45375;-61
2023/01/03 12:26:52;;;;;;;;;7.67;6.67;;;;;11.69;64.33;102368.22;5016044;28;45363;-62
2023/01/03 12:29:28;;;;;;;;;6.75;6.75;;;;;11.73;63.38;102380.91;5021973;28;45426;-63
2023/01/03 12:32:01;;;;;;;;;12.25;10.75;;;;;11.65;63.97;102371.56;5020469;28;45376;-63
2023/01/03 12:34:50;;;;;;;;;8.25;6.25;;;;;11.67;64.40;102376.19;5034200;28;45591;-62